createdAt,value
2022-11-29T00:00:37.521Z,50.65
2022-11-29T00:03:40.021Z,41.15
2022-11-29T00:06:42.205Z,42.05
2022-11-29T00:09:44.684Z,41.45
2022-11-29T00:12:48.271Z,41.33
2022-11-29T00:15:50.778Z,36.95
2022-11-29T00:18:53.019Z,47.45
2022-11-29T00:21:55.692Z,47.00
2022-11-29T00:24:57.870Z,51.08
2022-11-29T00:28:00.470Z,41.83
2022-11-29T00:31:16.965Z,44.78
2022-11-29T00:34:19.674Z,56.25
2022-11-29T00:37:21.891Z,50.97
2022-11-29T00:40:24.587Z,48.90
2022-11-29T00:43:26.779Z,48.70
2022-11-29T00:46:29.343Z,51.05
2022-11-29T00:49:31.567Z,47.25
2022-11-29T00:52:34.059Z,42.00
2022-11-29T00:55:36.427Z,52.75
2022-11-29T00:58:38.992Z,52.40
2022-11-29T01:01:41.327Z,38.35
2022-11-29T01:04:44.178Z,43.58
2022-11-29T01:07:46.684Z,43.78
2022-11-29T01:10:49.279Z,37.72
2022-11-29T01:13:57.123Z,36.17
2022-11-29T01:16:59.763Z,43.03
2022-11-29T01:20:02.984Z,39.17
2022-11-29T01:23:05.685Z,38.42
2022-11-29T01:26:15.082Z,36.10
2022-11-29T01:29:17.604Z,40.53
2022-11-29T01:32:19.803Z,39.70
2022-11-29T01:35:22.378Z,36.75
2022-11-29T01:38:24.640Z,32.83
2022-11-29T01:41:31.068Z,33.08
2022-11-29T01:44:33.133Z,33.83
2022-11-29T01:47:41.426Z,41.37
2022-11-29T01:50:43.892Z,32.60
2022-11-29T01:53:46.565Z,28.62
2022-11-29T01:56:51.902Z,33.30
2022-11-29T02:00:00.662Z,36.20
2022-11-29T02:03:10.970Z,31.90
2022-11-29T02:06:14.664Z,28.25
2022-11-29T02:09:19.850Z,44.25
2022-11-29T02:12:40.803Z,32.78
2022-11-29T02:15:50.150Z,38.03
2022-11-29T02:19:32.752Z,31.98
2022-11-29T02:22:44.073Z,29.52
2022-11-29T02:25:58.819Z,39.10
2022-11-29T02:30:05.010Z,33.20
2022-11-29T02:33:28.474Z,32.50
2022-11-29T02:36:33.258Z,30.90
2022-11-29T02:40:00.794Z,28.95
2022-11-29T02:43:30.616Z,33.03
2022-11-29T02:46:57.328Z,30.52
2022-11-29T02:50:05.399Z,29.92
2022-11-29T02:53:20.201Z,27.60
2022-11-29T02:56:48.507Z,27.35
2022-11-29T03:00:01.192Z,30.55
2022-11-29T03:03:09.465Z,28.12
2022-11-29T03:06:17.921Z,30.08
2022-11-29T03:09:40.358Z,29.25
2022-11-29T03:12:49.439Z,22.85
2022-11-29T03:15:59.112Z,28.35
2022-11-29T03:19:19.871Z,31.98
2022-11-29T03:23:07.553Z,21.62
2022-11-29T03:26:38.131Z,29.08
2022-11-29T03:29:48.140Z,24.05
2022-11-29T03:32:56.708Z,27.02
2022-11-29T03:36:18.668Z,23.33
2022-11-29T03:39:30.533Z,27.95
2022-11-29T03:42:44.727Z,24.73
2022-11-29T03:46:11.341Z,23.05
2022-11-29T03:49:23.328Z,22.67
2022-11-29T03:52:38.632Z,26.40
2022-11-29T03:55:53.238Z,22.73
2022-11-29T03:59:04.850Z,23.75
2022-11-29T04:02:37.958Z,33.25
2022-11-29T04:05:59.561Z,27.30
2022-11-29T04:09:26.086Z,20.85
2022-11-29T04:12:47.363Z,28.27
2022-11-29T04:16:40.998Z,30.42
2022-11-29T04:20:09.842Z,24.65
2022-11-29T04:23:30.135Z,23.85
2022-11-29T04:26:51.431Z,25.73
2022-11-29T04:30:17.893Z,27.48
2022-11-29T04:33:52.821Z,27.37
2022-11-29T04:37:23.364Z,25.67
2022-11-29T04:40:50.202Z,30.17
2022-11-29T04:43:58.139Z,27.45
2022-11-29T04:47:07.716Z,25.40
2022-11-29T04:50:26.870Z,28.00
2022-11-29T04:53:54.040Z,29.33
2022-11-29T04:57:19.459Z,26.25
2022-11-29T05:00:39.371Z,28.38
2022-11-29T05:03:55.456Z,27.80
2022-11-29T05:06:59.914Z,27.80
2022-11-29T05:10:28.243Z,36.10
2022-11-29T05:13:59.210Z,29.55
2022-11-29T05:17:33.235Z,26.92
2022-11-29T05:20:48.979Z,31.23
2022-11-29T05:24:06.517Z,23.10
2022-11-29T05:27:23.185Z,26.10
2022-11-29T05:30:40.427Z,22.92
2022-11-29T05:33:51.224Z,26.35
2022-11-29T05:37:11.399Z,23.77
2022-11-29T05:40:32.725Z,28.23
2022-11-29T05:43:38.019Z,26.73
2022-11-29T05:46:58.605Z,25.37
2022-11-29T05:50:27.326Z,24.73
2022-11-29T05:53:48.666Z,19.87
2022-11-29T05:57:06.957Z,20.02
2022-11-29T06:00:12.879Z,21.37
2022-11-29T06:03:35.076Z,20.30
2022-11-29T06:06:45.036Z,24.42
2022-11-29T06:10:11.890Z,26.60
2022-11-29T06:13:54.547Z,27.30
2022-11-29T06:17:38.788Z,26.35
2022-11-29T06:21:17.024Z,23.23
2022-11-29T06:24:45.418Z,28.75
2022-11-29T06:28:07.117Z,28.87
2022-11-29T06:31:32.059Z,28.83
2022-11-29T06:34:50.827Z,30.27
2022-11-29T06:37:58.470Z,29.23
2022-11-29T06:41:02.321Z,34.55
2022-11-29T06:44:05.693Z,32.75
2022-11-29T06:47:23.678Z,32.75
2022-11-29T06:50:38.427Z,29.87
2022-11-29T06:54:03.272Z,27.13
2022-11-29T06:57:17.561Z,26.15
2022-11-29T07:00:23.741Z,28.73
2022-11-29T07:03:48.026Z,26.50
2022-11-29T07:06:51.407Z,26.40
2022-11-29T07:10:00.350Z,25.95
2022-11-29T07:13:06.126Z,28.00
2022-11-29T07:16:28.336Z,28.50
2022-11-29T07:19:52.386Z,24.77
2022-11-29T07:23:29.439Z,28.15
2022-11-29T07:26:48.140Z,30.58
2022-11-29T07:30:01.885Z,34.17
2022-11-29T07:33:34.235Z,28.52
2022-11-29T07:36:59.050Z,29.30
2022-11-29T07:40:19.644Z,33.70
2022-11-29T07:43:43.454Z,30.10
2022-11-29T07:46:45.708Z,33.33
2022-11-29T07:49:48.186Z,31.45
2022-11-29T07:52:50.489Z,31.73
2022-11-29T07:55:53.091Z,38.85
2022-11-29T07:58:55.249Z,39.10
2022-11-29T08:01:58.793Z,35.33
2022-11-29T08:05:04.739Z,29.23
2022-11-29T08:08:08.681Z,33.22
2022-11-29T08:11:12.406Z,30.92
2022-11-29T08:14:14.822Z,33.30
2022-11-29T08:17:18.584Z,31.77
2022-11-29T08:20:20.726Z,29.77
2022-11-29T08:23:23.241Z,29.00
2022-11-29T08:26:31.232Z,33.47
2022-11-29T08:29:34.257Z,37.05
2022-11-29T08:32:36.386Z,39.22
2022-11-29T08:35:39.984Z,36.80
2022-11-29T08:38:42.433Z,31.45
2022-11-29T08:41:45.132Z,29.70
2022-11-29T08:44:48.121Z,39.42
2022-11-29T08:47:50.831Z,31.05
2022-11-29T08:50:55.344Z,38.15
2022-11-29T08:53:57.740Z,38.10
2022-11-29T08:57:37.885Z,36.63
2022-11-29T09:00:25.043Z,28.58
2022-11-29T09:03:46.044Z,29.87
2022-11-29T09:06:49.692Z,32.65
2022-11-29T09:09:51.938Z,35.95
2022-11-29T09:12:55.052Z,32.40
2022-11-29T09:15:57.583Z,39.53
2022-11-29T09:19:00.214Z,34.38
2022-11-29T09:22:03.618Z,30.35
2022-11-29T09:25:06.715Z,34.03
2022-11-29T09:28:09.105Z,32.50
2022-11-29T09:31:14.561Z,37.67
2022-11-29T09:34:18.814Z,35.97
2022-11-29T09:37:21.395Z,47.55
2022-11-29T09:40:32.025Z,42.72
2022-11-29T09:43:55.027Z,42.80
2022-11-29T09:46:58.932Z,37.70
2022-11-29T09:50:21.274Z,36.38
2022-11-29T09:54:00.871Z,41.15
2022-11-29T09:57:10.622Z,43.25
2022-11-29T10:00:20.550Z,42.40
2022-11-29T10:03:46.479Z,44.10
2022-11-29T10:06:58.444Z,41.92
2022-11-29T10:10:08.409Z,40.47
2022-11-29T10:13:32.296Z,41.40
2022-11-29T10:16:58.693Z,51.08
2022-11-29T10:20:10.216Z,37.38
2022-11-29T10:23:31.052Z,37.33
2022-11-29T10:26:35.330Z,42.85
2022-11-29T10:29:38.441Z,48.13
2022-11-29T10:32:42.446Z,39.03
2022-11-29T10:35:47.627Z,42.30
2022-11-29T10:38:51.399Z,40.28
2022-11-29T10:42:02.517Z,37.60
2022-11-29T10:45:31.017Z,41.35
2022-11-29T10:48:34.200Z,36.85
2022-11-29T10:51:36.671Z,38.25
2022-11-29T10:54:42.384Z,36.30
2022-11-29T10:58:13.148Z,35.97
2022-11-29T11:01:16.836Z,34.55
2022-11-29T11:04:35.182Z,39.95
2022-11-29T11:07:38.954Z,43.60
2022-11-29T11:10:41.450Z,42.60
2022-11-29T11:13:58.100Z,41.60
2022-11-29T11:17:22.511Z,37.15
2022-11-29T11:20:29.108Z,43.78
2022-11-29T11:23:36.369Z,43.87
2022-11-29T11:26:45.353Z,36.58
2022-11-29T11:29:47.532Z,38.30
2022-11-29T11:33:19.408Z,41.40
2022-11-29T11:36:27.390Z,44.47
2022-11-29T11:39:32.449Z,34.60
2022-11-29T11:42:40.342Z,42.42
2022-11-29T11:45:52.039Z,43.50
2022-11-29T11:48:54.356Z,37.10
2022-11-29T11:52:01.221Z,40.55
2022-11-29T11:55:25.305Z,49.03
2022-11-29T11:58:44.579Z,42.62
2022-11-29T12:01:47.192Z,38.00
2022-11-29T12:04:49.701Z,43.50
2022-11-29T12:08:07.918Z,43.87
2022-11-29T12:11:14.681Z,45.47
2022-11-29T12:14:32.584Z,40.05
2022-11-29T12:17:38.431Z,43.63
2022-11-29T12:21:07.184Z,40.30
2022-11-29T12:24:26.265Z,45.33
2022-11-29T12:27:29.216Z,43.77
2022-11-29T12:30:32.050Z,44.47
2022-11-29T12:34:07.707Z,46.17
2022-11-29T12:37:16.679Z,41.75
2022-11-29T12:40:36.768Z,42.80
2022-11-29T12:44:11.279Z,44.75
2022-11-29T12:47:51.538Z,44.50
2022-11-29T12:51:33.513Z,43.87
2022-11-29T12:54:35.568Z,43.35
2022-11-29T12:57:45.988Z,52.03
2022-11-29T13:01:26.305Z,54.35
2022-11-29T13:04:56.514Z,52.62
2022-11-29T13:08:46.680Z,49.50
2022-11-29T13:11:58.365Z,48.22
2022-11-29T13:15:23.981Z,51.35
2022-11-29T13:18:45.146Z,44.22
2022-11-29T13:21:59.518Z,61.00
2022-11-29T13:25:13.143Z,56.50
2022-11-29T13:28:24.940Z,49.63
2022-11-29T13:31:27.933Z,55.40
2022-11-29T13:34:41.579Z,51.80
2022-11-29T13:38:03.289Z,51.95
2022-11-29T13:41:11.232Z,54.50
2022-11-29T13:44:43.582Z,47.37
2022-11-29T13:47:49.929Z,48.72
2022-11-29T13:50:52.505Z,52.15
2022-11-29T13:53:56.703Z,48.83
2022-11-29T13:57:05.337Z,54.08
2022-11-29T14:00:27.327Z,47.37
2022-11-29T14:03:38.694Z,47.80
2022-11-29T14:06:41.299Z,54.67
2022-11-29T14:09:51.332Z,53.83
2022-11-29T14:12:56.774Z,52.22
2022-11-29T14:16:03.447Z,54.10
2022-11-29T14:19:08.411Z,48.95
2022-11-29T14:22:20.807Z,49.50
2022-11-29T14:25:50.692Z,48.45
2022-11-29T14:28:47.707Z,59.30
2022-11-29T14:31:53.324Z,44.00
2022-11-29T14:35:04.711Z,45.88
2022-11-29T14:38:35.010Z,51.47
2022-11-29T14:42:01.899Z,60.50
2022-11-29T14:45:22.763Z,41.83
2022-11-29T14:48:31.547Z,48.97
2022-11-29T14:51:34.420Z,48.28
2022-11-29T14:54:57.039Z,48.25
2022-11-29T14:58:03.723Z,44.85
2022-11-29T15:01:10.694Z,58.08
2022-11-29T15:04:13.553Z,55.22
2022-11-29T15:07:19.394Z,56.30
2022-11-29T15:10:27.084Z,50.47
2022-11-29T15:13:32.891Z,48.80
2022-11-29T15:16:52.223Z,49.47
2022-11-29T15:20:06.662Z,50.70
2022-11-29T15:23:17.754Z,58.60
2022-11-29T15:26:21.130Z,53.85
2022-11-29T15:29:23.419Z,44.45
2022-11-29T15:32:30.854Z,57.72
2022-11-29T15:35:34.485Z,49.72
2022-11-29T15:38:45.755Z,47.83
2022-11-29T15:41:47.909Z,55.17
2022-11-29T15:44:52.884Z,48.38
2022-11-29T15:47:55.433Z,52.45
2022-11-29T15:51:03.690Z,46.37
2022-11-29T15:54:16.608Z,54.33
2022-11-29T15:57:26.468Z,50.67
2022-11-29T16:00:31.407Z,55.12
2022-11-29T16:03:37.796Z,56.72
2022-11-29T16:06:42.179Z,49.42
2022-11-29T16:09:51.712Z,61.42
2022-11-29T16:12:59.166Z,53.17
2022-11-29T16:16:12.695Z,50.15
2022-11-29T16:19:23.253Z,49.45
2022-11-29T16:22:25.599Z,57.75
2022-11-29T16:25:28.052Z,49.90
2022-11-29T16:28:37.152Z,49.55
2022-11-29T16:31:39.450Z,57.28
2022-11-29T16:34:44.274Z,49.75
2022-11-29T16:37:47.307Z,45.88
2022-11-29T16:41:21.516Z,51.85
2022-11-29T16:44:47.013Z,53.90
2022-11-29T16:47:57.834Z,62.33
2022-11-29T16:51:16.032Z,55.40
2022-11-29T16:54:24.391Z,55.65
2022-11-29T16:57:28.759Z,52.38
2022-11-29T17:00:33.391Z,47.05
2022-11-29T17:03:35.717Z,55.33
2022-11-29T17:06:38.185Z,58.58
2022-11-29T17:09:40.333Z,50.05
2022-11-29T17:12:47.758Z,51.05
2022-11-29T17:15:50.408Z,48.40
2022-11-29T17:18:53.705Z,51.88
2022-11-29T17:21:55.919Z,55.80
2022-11-29T17:24:58.312Z,56.75
2022-11-29T17:28:01.094Z,54.53
2022-11-29T17:31:13.799Z,57.47
2022-11-29T17:34:16.700Z,53.22
2022-11-29T17:37:19.161Z,50.38
2022-11-29T17:40:21.251Z,50.42
2022-11-29T17:43:23.656Z,49.63
2022-11-29T17:46:31.781Z,55.70
2022-11-29T17:49:34.515Z,53.87
2022-11-29T17:52:36.988Z,47.90
2022-11-29T17:55:39.363Z,47.25
2022-11-29T17:58:41.877Z,43.55
2022-11-29T18:01:49.458Z,50.15
2022-11-29T18:04:52.174Z,51.97
2022-11-29T18:08:00.348Z,49.50
2022-11-29T18:11:08.085Z,52.70
2022-11-29T18:14:11.999Z,48.92
2022-11-29T18:17:14.408Z,43.92
2022-11-29T18:20:16.569Z,57.55
2022-11-29T18:23:19.033Z,40.35
2022-11-29T18:26:25.961Z,57.95
2022-11-29T18:29:31.514Z,48.40
2022-11-29T18:32:38.161Z,45.58
2022-11-29T18:35:40.564Z,49.78
2022-11-29T18:38:44.497Z,54.08
2022-11-29T18:41:49.304Z,48.08
2022-11-29T18:44:53.596Z,54.17
2022-11-29T18:47:59.846Z,56.33
2022-11-29T18:51:07.153Z,55.20
2022-11-29T18:54:10.193Z,46.17
2022-11-29T18:57:12.320Z,57.62
2022-11-29T19:00:15.379Z,48.95
2022-11-29T19:03:17.508Z,55.40
2022-11-29T19:06:22.434Z,53.35
2022-11-29T19:09:24.748Z,56.22
2022-11-29T19:12:27.124Z,54.45
2022-11-29T19:15:29.185Z,57.53
2022-11-29T19:18:31.764Z,54.92
2022-11-29T19:21:34.588Z,60.10
2022-11-29T19:24:36.996Z,58.42
2022-11-29T19:27:40.084Z,55.08
2022-11-29T19:30:42.893Z,53.38
2022-11-29T19:33:45.884Z,59.08
2022-11-29T19:36:48.259Z,59.03
2022-11-29T19:39:50.312Z,60.63
2022-11-29T19:42:52.645Z,55.95
2022-11-29T19:45:54.771Z,46.45
2022-11-29T19:48:58.530Z,56.95
2022-11-29T19:52:00.629Z,53.45
2022-11-29T19:55:03.149Z,57.62
2022-11-29T19:58:05.478Z,58.63
2022-11-29T20:01:13.666Z,51.58
2022-11-29T20:04:17.465Z,50.53
2022-11-29T20:07:20.699Z,53.85
2022-11-29T20:10:23.551Z,50.97
2022-11-29T20:13:25.744Z,52.78
2022-11-29T20:16:31.042Z,52.40
2022-11-29T20:19:33.205Z,54.20
2022-11-29T20:22:35.606Z,51.83
2022-11-29T20:25:37.841Z,51.85
2022-11-29T20:28:40.707Z,58.70
2022-11-29T20:31:49.420Z,55.72
2022-11-29T20:34:52.499Z,53.97
2022-11-29T20:38:36.170Z,55.78
2022-11-29T20:41:53.429Z,44.88
2022-11-29T20:44:58.103Z,50.12
2022-11-29T20:48:17.707Z,51.40
2022-11-29T20:51:24.494Z,44.85
2022-11-29T20:54:26.857Z,42.13
2022-11-29T20:57:28.938Z,44.22
2022-11-29T21:00:31.461Z,46.00
2022-11-29T21:03:33.936Z,38.10
2022-11-29T21:06:37.967Z,41.92
2022-11-29T21:09:40.098Z,41.15
2022-11-29T21:12:45.524Z,39.15
2022-11-29T21:15:48.523Z,46.35
2022-11-29T21:18:51.080Z,41.28
2022-11-29T21:22:14.245Z,41.15
2022-11-29T21:25:31.825Z,39.42
2022-11-29T21:28:50.505Z,38.08
2022-11-29T21:31:54.155Z,37.50
2022-11-29T21:34:56.327Z,39.28
2022-11-29T21:38:01.571Z,38.25
2022-11-29T21:41:03.704Z,39.25
2022-11-29T21:44:07.789Z,44.67
2022-11-29T21:47:10.378Z,30.65
2022-11-29T21:50:13.722Z,39.60
2022-11-29T21:53:15.846Z,34.92
2022-11-29T21:56:18.264Z,42.75
2022-11-29T21:59:20.560Z,44.40
2022-11-29T22:02:23.227Z,35.10
2022-11-29T22:05:25.689Z,34.35
2022-11-29T22:08:27.826Z,38.20
2022-11-29T22:11:34.260Z,33.75
2022-11-29T22:14:36.634Z,35.70
2022-11-29T22:17:39.083Z,31.70
2022-11-29T22:20:41.157Z,34.30
2022-11-29T22:23:43.587Z,29.85
2022-11-29T22:26:46.395Z,35.50
2022-11-29T22:29:48.914Z,31.95
2022-11-29T22:32:51.102Z,31.45
2022-11-29T22:35:53.923Z,34.13
2022-11-29T22:38:55.981Z,35.85
2022-11-29T22:41:58.353Z,29.90
2022-11-29T22:45:02.103Z,32.08
2022-11-29T22:48:04.733Z,36.63
2022-11-29T22:51:06.849Z,37.03
2022-11-29T22:54:11.302Z,38.35
2022-11-29T22:57:13.415Z,37.17
2022-11-29T23:00:15.910Z,30.02
2022-11-29T23:03:18.038Z,34.17
2022-11-29T23:06:25.675Z,34.47
2022-11-29T23:09:29.841Z,36.05
2022-11-29T23:12:32.353Z,35.47
2022-11-29T23:15:34.512Z,32.58
2022-11-29T23:18:38.455Z,28.98
2022-11-29T23:21:41.331Z,28.30
2022-11-29T23:24:43.871Z,29.25
2022-11-29T23:27:46.238Z,33.08
2022-11-29T23:30:48.657Z,39.15
2022-11-29T23:33:51.188Z,32.92
2022-11-29T23:36:53.603Z,33.35
2022-11-29T23:39:55.676Z,32.80
2022-11-29T23:42:58.025Z,30.50
2022-11-29T23:46:04.845Z,28.67
2022-11-29T23:49:07.440Z,30.90
2022-11-29T23:52:09.523Z,29.15
2022-11-29T23:55:14.406Z,27.58
2022-11-29T23:58:16.523Z,31.02
